Goessel, Kansas
Current Conditions -  °F | °C
As of 9:15 AM on Saturday 20 Dec 2014 (Local Time) from KEWK Reporting Station
Clear Clear  
Wind Chill: 29°   Ceiling: Unl
Heat Index: 36°   Visibility: 3mi
Dew Point: 30°   Wind: 9mph
Humidity: 81%   Direction: 200°SSW
Pressure: 30.15"   Gusts: NA
Location:  38.25°N, 97.35°W
Report Text: KEWK 201515Z AUTO 20008KT 3SM CLR 02/M01 A3015 RMK AO1
Loading
Personal Weather Stations






























Interactive Weather Map New forecast layout! Learn more

10-Day Weather Forecast

Advertisements
Track Severe Weather on mobile